Time;durP1;ratioP1;P1;durP2;ratioP2;P2;SDS_P1;SDS_P2;PMS_P1;PMS_P2;Temp;Humidity;BMP_temperature;BMP_pressure;BME280_temperature;BME280_humidity;BME280_pressure;Samples;Min_cycle;Max_cycle;Signal;HPM_P1;HPM_P2
2023/03/03 00:00:21;;;;;;;59.57;30.00;;;3.60;99.90;;;;;;5047796;28;20198;-71
2023/03/03 00:02:47;;;;;;;61.47;30.30;;;3.60;99.90;;;;;;5049173;28;20183;-71
2023/03/03 00:05:14;;;;;;;56.03;29.20;;;3.70;99.90;;;;;;5048060;28;20248;-71
2023/03/03 00:07:45;;;;;;;53.30;28.03;;;3.60;99.90;;;;;;5047617;28;20698;-72
2023/03/03 00:10:12;;;;;;;59.30;30.75;;;3.60;99.90;;;;;;5046926;28;20532;-71
2023/03/03 00:12:47;;;;;;;60.08;29.98;;;3.60;99.90;;;;;;5049422;28;20190;-71
2023/03/03 00:15:21;;;;;;;54.47;29.10;;;3.70;99.90;;;;;;5051151;28;20212;-72
2023/03/03 00:17:47;;;;;;;57.90;28.57;;;3.70;99.90;;;;;;5050839;28;20607;-71
2023/03/03 00:20:36;;;;;;;63.37;31.80;;;3.70;99.90;;;;;;5032128;28;20440;-71
2023/03/03 00:23:30;;;;;;;59.58;29.63;;;3.70;99.90;;;;;;5049822;28;20420;-71
2023/03/03 00:25:57;;;;;;;55.47;28.90;;;3.70;99.90;;;;;;5049266;28;20213;-72
2023/03/03 00:28:46;;;;;;;59.63;29.63;;;3.70;99.90;;;;;;5049390;28;20441;-71
2023/03/03 00:31:18;;;;;;;60.78;31.15;;;3.70;99.90;;;;;;5049315;28;20194;-71
2023/03/03 00:33:54;;;;;;;72.23;30.23;;;3.70;99.90;;;;;;5049203;28;20194;-72
2023/03/03 00:36:30;;;;;;;57.75;30.17;;;3.70;99.90;;;;;;5049243;28;20943;-71
2023/03/03 00:39:14;;;;;;;51.92;28.48;;;3.70;99.90;;;;;;5047167;28;20217;-71
2023/03/03 00:41:40;;;;;;;59.03;31.75;;;3.70;99.90;;;;;;5048825;28;20181;-71
2023/03/03 00:44:30;;;;;;;60.30;30.33;;;3.70;99.90;;;;;;5048560;28;20187;-71
2023/03/03 00:47:00;;;;;;;61.00;31.05;;;3.70;99.90;;;;;;5048856;28;20192;-71
2023/03/03 00:49:26;;;;;;;56.55;32.45;;;3.70;99.90;;;;;;5048693;28;20204;-71
2023/03/03 00:51:53;;;;;;;56.47;29.67;;;3.70;99.90;;;;;;5048655;28;20208;-71
2023/03/03 00:54:18;;;;;;;55.08;29.40;;;3.60;99.90;;;;;;5048393;28;20555;-71
2023/03/03 00:56:44;;;;;;;59.87;28.67;;;3.60;99.90;;;;;;5048520;28;20322;-72
2023/03/03 00:59:10;;;;;;;57.80;29.07;;;3.60;99.90;;;;;;5048324;28;20189;-71
2023/03/03 01:01:36;;;;;;;56.53;29.63;;;3.50;99.90;;;;;;5048444;28;20278;-72
2023/03/03 01:04:01;;;;;;;64.10;31.10;;;3.40;99.90;;;;;;5048707;28;20196;-72
2023/03/03 01:06:27;;;;;;;55.60;30.37;;;3.40;99.90;;;;;;5047256;28;20208;-71
2023/03/03 01:08:56;;;;;;;56.00;29.77;;;3.40;99.90;;;;;;5046909;28;20857;-71
2023/03/03 01:11:24;;;;;;;59.25;31.23;;;3.40;99.90;;;;;;5048419;28;20321;-71
2023/03/03 01:13:52;;;;;;;61.38;31.02;;;3.20;99.90;;;;;;5048289;28;20192;-71
2023/03/03 01:16:18;;;;;;;64.10;32.63;;;3.20;99.90;;;;;;5048365;28;20197;-72
2023/03/03 01:18:44;;;;;;;65.30;32.03;;;3.20;99.90;;;;;;5048326;28;20205;-72
2023/03/03 01:21:11;;;;;;;55.33;29.73;;;3.20;99.90;;;;;;5049154;28;20345;-72
2023/03/03 01:23:37;;;;;;;63.60;29.45;;;3.10;99.90;;;;;;5052312;28;20505;-72
2023/03/03 01:26:03;;;;;;;57.73;30.27;;;3.10;99.90;;;;;;5052233;28;20653;-72
2023/03/03 01:28:29;;;;;;;53.55;28.30;;;3.00;99.90;;;;;;5052179;28;20440;-72
2023/03/03 01:31:01;;;;;;;60.47;29.97;;;2.90;99.90;;;;;;5034234;28;20188;-72
2023/03/03 01:33:26;;;;;;;57.35;28.20;;;2.90;99.90;;;;;;5052207;28;20197;-72
2023/03/03 01:35:52;;;;;;;53.03;27.17;;;2.80;99.90;;;;;;5050306;28;20315;-72
2023/03/03 01:38:17;;;;;;;58.00;27.37;;;2.70;99.90;;;;;;5052002;28;20292;-72
2023/03/03 01:40:55;;;;;;;55.47;27.80;;;2.60;99.90;;;;;;5052024;28;20732;-72
2023/03/03 01:43:20;;;;;;;52.65;27.38;;;2.60;99.90;;;;;;5050395;28;20656;-72
2023/03/03 01:45:46;;;;;;;60.83;28.87;;;2.60;99.90;;;;;;5050401;28;20193;-72
2023/03/03 01:48:21;;;;;;;52.40;28.70;;;2.50;99.90;;;;;;5051903;28;20756;-72
2023/03/03 01:50:54;;;;;;;60.03;28.05;;;2.50;99.90;;;;;;5050194;28;20195;-72
2023/03/03 01:53:29;;;;;;;57.33;26.45;;;2.50;99.90;;;;;;5051982;28;20311;-72
2023/03/03 01:55:55;;;;;;;53.88;28.05;;;2.50;99.90;;;;;;5051721;28;20212;-72
2023/03/03 01:58:26;;;;;;;59.55;28.95;;;2.40;99.90;;;;;;5051771;28;20249;-72
2023/03/03 02:00:57;;;;;;;62.22;28.65;;;2.40;99.90;;;;;;5051528;28;20209;-72
2023/03/03 02:03:23;;;;;;;55.55;26.95;;;2.40;99.90;;;;;;5051609;28;20634;-72
2023/03/03 02:05:52;;;;;;;56.17;29.60;;;2.30;99.90;;;;;;5051443;28;20206;-72
2023/03/03 02:08:21;;;;;;;54.15;27.60;;;2.20;99.90;;;;;;5050087;28;20439;-72
2023/03/03 02:10:47;;;;;;;56.58;28.40;;;2.20;99.90;;;;;;5051432;28;20223;-72
2023/03/03 02:13:14;;;;;;;51.80;27.48;;;2.20;99.90;;;;;;5051445;28;20191;-72
2023/03/03 02:15:40;;;;;;;55.95;29.45;;;2.10;99.90;;;;;;5049714;28;20227;-72
2023/03/03 02:18:13;;;;;;;52.20;27.90;;;2.10;99.90;;;;;;5051235;28;20669;-72
2023/03/03 02:20:41;;;;;;;52.70;28.80;;;2.10;99.90;;;;;;5051189;28;20269;-72
2023/03/03 02:23:22;;;;;;;55.20;28.15;;;2.00;99.90;;;;;;5051353;28;20207;-72
2023/03/03 02:25:57;;;;;;;57.75;29.63;;;2.10;99.90;;;;;;5049702;28;20230;-72
2023/03/03 02:28:25;;;;;;;52.05;27.45;;;2.10;99.90;;;;;;5051002;28;20203;-72
2023/03/03 02:30:54;;;;;;;55.35;30.23;;;2.00;99.90;;;;;;5049768;28;20223;-72
2023/03/03 02:33:20;;;;;;;58.40;28.35;;;2.10;99.90;;;;;;5049905;28;20192;-72
2023/03/03 02:35:46;;;;;;;60.37;29.10;;;2.20;99.90;;;;;;5050614;28;20224;-73
2023/03/03 02:38:50;;;;;;;48.97;28.25;;;2.20;99.90;;;;;;5050850;28;20200;-71
2023/03/03 02:41:45;;;;;;;54.33;29.13;;;2.20;99.90;;;;;;5011792;28;20181;-71
2023/03/03 02:44:17;;;;;;;56.65;28.65;;;2.30;99.90;;;;;;5050825;28;20235;-71
2023/03/03 02:46:46;;;;;;;59.97;31.15;;;2.30;99.90;;;;;;5050978;28;20187;-72
2023/03/03 02:49:14;;;;;;;55.30;28.40;;;2.30;99.90;;;;;;5050723;28;20181;-72
2023/03/03 02:51:40;;;;;;;58.25;29.52;;;2.30;99.90;;;;;;5050666;28;20212;-72
2023/03/03 02:54:07;;;;;;;60.30;30.08;;;2.20;99.90;;;;;;5050739;28;20210;-72
2023/03/03 02:56:33;;;;;;;53.65;28.70;;;2.20;99.90;;;;;;5050510;28;20263;-72
2023/03/03 02:58:59;;;;;;;53.60;27.80;;;2.20;99.90;;;;;;5050562;28;20204;-71
2023/03/03 03:01:25;;;;;;;62.33;28.73;;;2.20;99.90;;;;;;5050676;28;20281;-71
2023/03/03 03:03:51;;;;;;;53.73;29.17;;;2.30;99.90;;;;;;5049278;28;20274;-71
2023/03/03 03:06:16;;;;;;;70.37;29.60;;;2.30;99.90;;;;;;5050531;28;20690;-71
2023/03/03 03:08:42;;;;;;;55.53;27.70;;;2.30;99.90;;;;;;5050463;28;20209;-71
2023/03/03 03:11:08;;;;;;;60.60;29.83;;;2.30;99.90;;;;;;5050362;28;20176;-71
2023/03/03 03:13:34;;;;;;;63.47;29.50;;;2.40;99.90;;;;;;5050582;28;20548;-71
2023/03/03 03:16:00;;;;;;;54.93;29.33;;;2.40;99.90;;;;;;5050554;28;20895;-71
2023/03/03 03:18:26;;;;;;;60.83;28.90;;;2.50;99.90;;;;;;5050346;28;20443;-71
2023/03/03 03:20:52;;;;;;;54.30;26.63;;;2.50;99.90;;;;;;5050513;28;20677;-71
2023/03/03 03:23:20;;;;;;;55.03;28.30;;;2.60;99.90;;;;;;5049348;28;20227;-72
2023/03/03 03:25:46;;;;;;;47.83;26.35;;;2.60;99.90;;;;;;5050647;28;20182;-72
2023/03/03 03:28:14;;;;;;;53.28;27.42;;;2.60;99.90;;;;;;5050900;28;20204;-71
2023/03/03 03:30:39;;;;;;;52.17;27.48;;;2.60;99.90;;;;;;5050930;28;20222;-71
2023/03/03 03:33:06;;;;;;;52.40;29.10;;;2.50;99.90;;;;;;5050712;28;20180;-71
2023/03/03 03:35:33;;;;;;;63.22;30.30;;;2.50;99.90;;;;;;5048946;28;20250;-71
2023/03/03 03:37:59;;;;;;;53.42;29.73;;;2.50;99.90;;;;;;5050103;28;20207;-71
2023/03/03 03:40:25;;;;;;;65.80;30.00;;;2.60;99.90;;;;;;5050165;28;20184;-71
2023/03/03 03:42:54;;;;;;;52.85;28.45;;;2.60;99.90;;;;;;5049688;28;20548;-71
2023/03/03 03:45:19;;;;;;;49.90;27.42;;;2.60;99.90;;;;;;5049906;28;20237;-71
2023/03/03 03:47:45;;;;;;;53.73;29.50;;;2.60;99.90;;;;;;5049972;28;20227;-71
2023/03/03 03:50:12;;;;;;;57.47;29.57;;;2.60;99.90;;;;;;5048650;28;20427;-71
2023/03/03 03:52:37;;;;;;;58.90;30.70;;;2.60;99.90;;;;;;5049698;28;20418;-71
2023/03/03 03:55:04;;;;;;;55.83;28.50;;;2.60;99.90;;;;;;5049610;28;20220;-71
2023/03/03 03:57:29;;;;;;;56.85;28.23;;;2.70;99.90;;;;;;5048318;28;20300;-71
2023/03/03 03:59:55;;;;;;;64.60;31.70;;;2.70;99.90;;;;;;5049474;28;20336;-71
2023/03/03 04:02:20;;;;;;;56.63;30.13;;;2.70;99.90;;;;;;5049648;28;20181;-71
2023/03/03 04:04:47;;;;;;;56.27;30.67;;;2.70;99.90;;;;;;5049479;28;20196;-71
2023/03/03 04:07:12;;;;;;;59.95;31.70;;;2.70;99.90;;;;;;5049353;28;20201;-72
2023/03/03 04:09:38;;;;;;;61.70;30.00;;;2.80;99.90;;;;;;5049385;28;20255;-71
2023/03/03 04:12:03;;;;;;;60.27;28.40;;;2.80;99.90;;;;;;5049646;28;20183;-71
2023/03/03 04:14:29;;;;;;;63.03;31.00;;;2.80;99.90;;;;;;5049381;28;20206;-71
2023/03/03 04:16:55;;;;;;;58.93;30.10;;;2.80;99.90;;;;;;5047900;28;20238;-73
2023/03/03 04:19:21;;;;;;;58.37;29.30;;;2.80;99.90;;;;;;5049213;28;20305;-71
2023/03/03 04:21:46;;;;;;;56.00;29.63;;;2.80;99.90;;;;;;5049205;28;20422;-71
2023/03/03 04:24:12;;;;;;;53.07;28.67;;;2.80;99.90;;;;;;5049397;28;21300;-71
2023/03/03 04:26:38;;;;;;;58.97;29.37;;;2.80;99.90;;;;;;5049387;28;20191;-72
2023/03/03 04:29:03;;;;;;;55.10;30.00;;;2.70;99.90;;;;;;5049357;28;20696;-71
2023/03/03 04:31:29;;;;;;;60.00;29.83;;;2.80;99.90;;;;;;5049386;28;20215;-71
2023/03/03 04:33:55;;;;;;;61.23;30.67;;;2.80;99.90;;;;;;5049297;28;20195;-71
2023/03/03 04:36:21;;;;;;;59.60;30.70;;;2.80;99.90;;;;;;5049204;28;20240;-71
2023/03/03 04:38:46;;;;;;;59.87;32.10;;;2.80;99.90;;;;;;5047953;28;20213;-71
2023/03/03 04:41:12;;;;;;;61.50;31.10;;;2.80;99.90;;;;;;5049639;28;20184;-71
2023/03/03 04:43:38;;;;;;;58.60;31.03;;;2.80;99.90;;;;;;5049393;28;20184;-71
2023/03/03 04:46:04;;;;;;;60.33;31.13;;;2.70;99.90;;;;;;5031035;28;20432;-71
2023/03/03 04:48:29;;;;;;;53.33;28.43;;;2.80;99.90;;;;;;5048615;28;20210;-71
2023/03/03 04:50:55;;;;;;;55.93;28.87;;;2.80;99.90;;;;;;5047537;28;20235;-72
2023/03/03 04:53:21;;;;;;;56.83;30.00;;;2.80;99.90;;;;;;5047497;28;20213;-72
2023/03/03 04:55:50;;;;;;;63.33;30.80;;;2.80;99.90;;;;;;5047846;28;20630;-71
2023/03/03 04:58:18;;;;;;;63.22;30.55;;;2.80;99.90;;;;;;5048613;28;20232;-72
2023/03/03 05:00:44;;;;;;;54.55;29.95;;;2.90;99.90;;;;;;5048588;28;20200;-72
2023/03/03 05:03:11;;;;;;;67.13;29.40;;;2.90;99.90;;;;;;5048407;28;20734;-72
2023/03/03 05:05:37;;;;;;;60.38;31.00;;;2.90;99.90;;;;;;5048484;28;20841;-72
2023/03/03 05:08:03;;;;;;;57.77;30.97;;;2.90;99.90;;;;;;5046806;28;20208;-72
2023/03/03 05:10:29;;;;;;;59.57;30.00;;;2.90;99.90;;;;;;5048689;28;20239;-72
2023/03/03 05:12:54;;;;;;;63.03;31.20;;;2.90;99.90;;;;;;5048575;28;20602;-72
2023/03/03 05:15:20;;;;;;;57.37;29.70;;;2.80;99.90;;;;;;5014056;28;20214;-72
2023/03/03 05:17:46;;;;;;;65.73;30.90;;;2.80;99.90;;;;;;5048214;28;20206;-72
2023/03/03 05:20:12;;;;;;;57.13;28.80;;;2.90;99.90;;;;;;5048387;28;20177;-72
2023/03/03 05:22:37;;;;;;;53.22;27.35;;;2.90;99.90;;;;;;5048156;28;20265;-72
2023/03/03 05:25:04;;;;;;;55.30;28.60;;;2.90;99.90;;;;;;5049960;28;20279;-72
2023/03/03 05:27:30;;;;;;;57.65;30.15;;;2.90;99.90;;;;;;5047123;28;20304;-72
2023/03/03 05:29:55;;;;;;;54.90;29.23;;;2.90;99.90;;;;;;5030848;28;20692;-72
2023/03/03 05:32:21;;;;;;;60.30;29.43;;;2.90;99.90;;;;;;5048439;28;20182;-72
2023/03/03 05:34:46;;;;;;;58.57;29.97;;;2.90;99.90;;;;;;5046527;28;20994;-71
2023/03/03 05:37:14;;;;;;;63.00;31.30;;;2.90;99.90;;;;;;5048124;28;20711;-71
2023/03/03 05:39:40;;;;;;;63.45;31.92;;;2.90;99.90;;;;;;5048323;28;20181;-71
2023/03/03 05:42:05;;;;;;;70.27;31.60;;;2.80;99.90;;;;;;5046536;28;20195;-71
2023/03/03 05:44:31;;;;;;;64.50;30.50;;;2.80;99.90;;;;;;5048166;28;20258;-70
2023/03/03 05:46:57;;;;;;;66.63;33.57;;;2.80;99.90;;;;;;5045419;28;20197;-71
2023/03/03 05:49:24;;;;;;;64.75;32.95;;;2.80;99.90;;;;;;5046929;28;20189;-71
2023/03/03 05:51:49;;;;;;;59.63;32.17;;;2.80;99.90;;;;;;5046819;28;20194;-72
2023/03/03 05:54:15;;;;;;;60.77;32.33;;;2.80;99.90;;;;;;5045355;28;20217;-71
2023/03/03 05:56:40;;;;;;;59.93;30.90;;;2.90;99.90;;;;;;5046593;28;20914;-71
2023/03/03 05:59:06;;;;;;;66.57;34.30;;;2.90;99.90;;;;;;5045027;28;20249;-71
2023/03/03 06:01:32;;;;;;;65.13;31.50;;;2.90;99.90;;;;;;5028549;28;20371;-70
2023/03/03 06:03:58;;;;;;;60.83;31.05;;;2.80;99.90;;;;;;5046693;28;20181;-71
2023/03/03 06:06:23;;;;;;;60.03;31.73;;;2.80;99.90;;;;;;5047365;28;20195;-71
2023/03/03 06:08:49;;;;;;;64.37;32.20;;;2.80;99.90;;;;;;5050188;28;20222;-71
2023/03/03 06:11:17;;;;;;;76.67;35.77;;;2.80;99.90;;;;;;5015573;28;20602;-71
2023/03/03 06:13:42;;;;;;;58.45;30.83;;;2.90;99.90;;;;;;5048544;28;20314;-70
2023/03/03 06:16:08;;;;;;;60.87;30.70;;;2.90;99.90;;;;;;5049893;28;20656;-71
2023/03/03 06:18:34;;;;;;;57.93;30.40;;;2.90;99.90;;;;;;5050139;28;20201;-71
2023/03/03 06:20:59;;;;;;;64.10;31.93;;;2.90;99.90;;;;;;5048631;28;20196;-71
2023/03/03 06:23:25;;;;;;;58.67;31.67;;;3.00;99.90;;;;;;5050109;28;20728;-71
2023/03/03 06:25:52;;;;;;;68.53;33.10;;;3.00;99.90;;;;;;5048356;28;20548;-71
2023/03/03 06:28:17;;;;;;;59.10;30.17;;;3.00;99.90;;;;;;5049832;28;20201;-71
2023/03/03 06:30:43;;;;;;;57.57;31.00;;;3.00;99.90;;;;;;5049623;28;20756;-71
2023/03/03 06:33:08;;;;;;;58.30;30.40;;;3.00;99.90;;;;;;5049756;28;20184;-71
2023/03/03 06:35:34;;;;;;;60.63;31.30;;;3.00;99.90;;;;;;5049755;28;20259;-70
2023/03/03 06:38:00;;;;;;;58.97;31.53;;;3.10;99.90;;;;;;5049974;28;20685;-71
2023/03/03 06:40:25;;;;;;;63.60;31.73;;;3.10;99.90;;;;;;5048145;28;20188;-71
2023/03/03 06:42:51;;;;;;;60.30;31.47;;;3.10;99.90;;;;;;5049276;28;20176;-70
2023/03/03 06:45:17;;;;;;;59.60;32.00;;;3.10;99.90;;;;;;5049962;28;20182;-71
2023/03/03 06:47:42;;;;;;;59.00;30.47;;;3.10;99.90;;;;;;5048466;28;20212;-71
2023/03/03 06:50:10;;;;;;;63.03;33.63;;;3.10;99.90;;;;;;5048726;28;20357;-71
2023/03/03 06:52:36;;;;;;;60.28;31.50;;;3.20;99.90;;;;;;5050033;28;20204;-71
2023/03/03 06:55:10;;;;;;;61.63;31.03;;;3.20;99.90;;;;;;5050013;28;20305;-70
2023/03/03 06:57:36;;;;;;;59.25;29.90;;;3.20;99.90;;;;;;5031970;28;20300;-71
2023/03/03 07:00:21;;;;;;;65.87;31.70;;;3.30;99.90;;;;;;5050097;28;20273;-71
2023/03/03 07:02:57;;;;;;;58.92;31.90;;;3.30;99.90;;;;;;5049804;28;20201;-72
2023/03/03 07:05:24;;;;;;;64.43;33.40;;;3.30;99.90;;;;;;5049407;28;20196;-71
2023/03/03 07:07:50;;;;;;;58.75;29.15;;;3.30;99.90;;;;;;5031520;28;20220;-72
2023/03/03 07:10:25;;;;;;;61.60;32.13;;;3.30;99.90;;;;;;5031385;28;20198;-71
2023/03/03 07:12:51;;;;;;;60.28;30.65;;;3.40;99.90;;;;;;5049113;28;20186;-72
2023/03/03 07:15:28;;;;;;;60.05;31.85;;;3.40;99.90;;;;;;5049306;28;20243;-72
2023/03/03 07:17:58;;;;;;;61.33;32.35;;;3.50;99.90;;;;;;5048661;28;20193;-71
2023/03/03 07:20:32;;;;;;;61.50;31.38;;;3.50;99.90;;;;;;5049109;28;20182;-71
2023/03/03 07:22:57;;;;;;;62.83;32.40;;;3.50;99.90;;;;;;5049140;28;20183;-71
2023/03/03 07:25:31;;;;;;;60.00;31.93;;;3.50;99.90;;;;;;5049169;28;20641;-71
2023/03/03 07:28:26;;;;;;;65.35;30.88;;;3.60;99.90;;;;;;5049015;28;20213;-71
2023/03/03 07:30:54;;;;;;;58.50;31.23;;;3.60;99.90;;;;;;5043871;28;20206;-71
2023/03/03 07:33:33;;;;;;;56.63;30.30;;;3.60;99.90;;;;;;5047242;28;20189;-70
2023/03/03 07:36:01;;;;;;;59.85;31.52;;;3.60;99.90;;;;;;5048660;28;20317;-71
2023/03/03 07:38:44;;;;;;;59.17;30.70;;;3.70;99.90;;;;;;5048612;28;20204;-71
2023/03/03 07:41:19;;;;;;;65.70;32.03;;;3.70;99.90;;;;;;5048706;28;20181;-71
2023/03/03 07:43:58;;;;;;;67.20;34.38;;;3.80;99.90;;;;;;5048628;28;20202;-71
2023/03/03 07:46:43;;;;;;;70.75;32.83;;;3.80;99.90;;;;;;5048964;28;20174;-71
2023/03/03 07:49:19;;;;;;;71.05;34.28;;;3.90;99.90;;;;;;5047257;28;20218;-71
2023/03/03 07:51:45;;;;;;;73.63;31.88;;;3.90;99.90;;;;;;5048952;28;20954;-71
2023/03/03 07:54:17;;;;;;;59.67;29.83;;;4.00;99.90;;;;;;5047660;28;20218;-71
2023/03/03 07:56:43;;;;;;;65.22;32.50;;;3.90;99.90;;;;;;5048846;28;20438;-71
2023/03/03 07:59:23;;;;;;;63.85;33.05;;;4.00;99.90;;;;;;5049190;28;20206;-71
2023/03/03 08:01:57;;;;;;;60.33;32.00;;;4.10;99.90;;;;;;5047416;28;20167;-71
2023/03/03 08:04:27;;;;;;;65.97;32.80;;;4.10;99.90;;;;;;5048671;28;20180;-72
2023/03/03 08:06:58;;;;;;;59.50;29.77;;;4.10;99.90;;;;;;5048531;28;20421;-73
2023/03/03 08:09:36;;;;;;;56.38;30.00;;;3.90;99.90;;;;;;5046956;28;20221;-72
2023/03/03 08:12:32;;;;;;;71.72;32.58;;;4.00;99.90;;;;;;5048869;28;20551;-71
2023/03/03 08:15:20;;;;;;;60.50;31.30;;;4.10;99.90;;;;;;5048131;28;20215;-71
2023/03/03 08:17:47;;;;;;;65.40;31.02;;;4.20;99.90;;;;;;5046450;28;20242;-71
2023/03/03 08:20:42;;;;;;;69.03;31.75;;;4.30;99.90;;;;;;5048027;28;20277;-71
2023/03/03 08:23:08;;;;;;;66.00;34.87;;;4.40;99.90;;;;;;5048000;28;20186;-72
2023/03/03 08:25:34;;;;;;;59.60;30.03;;;4.40;99.90;;;;;;5048002;28;20517;-71
2023/03/03 08:27:59;;;;;;;59.83;30.50;;;4.50;99.90;;;;;;5029770;28;20209;-71
2023/03/03 08:30:25;;;;;;;62.53;31.27;;;4.50;99.90;;;;;;5029044;28;20190;-72
2023/03/03 08:32:50;;;;;;;63.33;31.53;;;4.60;99.90;;;;;;5046041;28;20183;-71
2023/03/03 08:35:16;;;;;;;72.30;33.93;;;4.70;99.90;;;;;;5047399;28;20998;-71
2023/03/03 08:37:41;;;;;;;59.33;32.20;;;4.80;99.90;;;;;;5047660;28;20215;-71
2023/03/03 08:40:08;;;;;;;61.20;33.00;;;4.80;99.90;;;;;;5046319;28;20212;-71
2023/03/03 08:42:33;;;;;;;63.30;31.10;;;4.90;99.90;;;;;;5046122;28;20195;-71
2023/03/03 08:44:59;;;;;;;62.03;32.17;;;4.90;99.90;;;;;;5047622;28;20782;-72
2023/03/03 08:47:25;;;;;;;59.73;32.70;;;5.00;99.90;;;;;;5047254;28;20209;-72
2023/03/03 08:49:50;;;;;;;64.90;33.27;;;4.90;99.90;;;;;;5047448;28;20681;-72
2023/03/03 08:52:16;;;;;;;69.87;31.40;;;4.90;99.90;;;;;;5047212;28;20213;-72
2023/03/03 08:54:41;;;;;;;60.93;32.67;;;5.00;99.90;;;;;;5047251;28;20208;-70
2023/03/03 08:57:07;;;;;;;54.97;30.77;;;5.10;99.90;;;;;;5047188;28;20229;-71
2023/03/03 08:59:37;;;;;;;66.90;31.53;;;5.20;99.90;;;;;;5047269;28;20210;-72
2023/03/03 09:02:04;;;;;;;57.78;30.98;;;5.40;99.90;;;;;;5047496;28;20231;-72
2023/03/03 09:04:30;;;;;;;59.67;30.40;;;5.40;99.90;;;;;;5047142;28;20217;-72
2023/03/03 09:06:56;;;;;;;54.80;31.10;;;5.40;99.90;;;;;;5029100;28;20282;-72
2023/03/03 09:09:22;;;;;;;55.40;30.60;;;5.60;99.90;;;;;;5047254;28;20211;-71
2023/03/03 09:11:48;;;;;;;63.90;31.23;;;5.60;99.90;;;;;;5047305;28;20429;-71
2023/03/03 09:14:17;;;;;;;55.27;32.50;;;5.80;99.90;;;;;;5047223;28;20426;-71
2023/03/03 09:16:53;;;;;;;63.85;33.00;;;5.90;99.90;;;;;;5047700;28;20429;-71
2023/03/03 09:19:25;;;;;;;58.53;31.42;;;6.10;99.90;;;;;;5047391;28;20556;-71
2023/03/03 09:21:53;;;;;;;58.78;30.10;;;6.10;99.90;;;;;;5047541;28;20175;-71
2023/03/03 09:24:30;;;;;;;64.80;30.80;;;6.20;99.90;;;;;;5047533;28;20180;-71
2023/03/03 09:27:00;;;;;;;56.63;30.87;;;6.40;99.90;;;;;;5047671;28;20429;-71
2023/03/03 09:29:36;;;;;;;57.00;29.40;;;6.50;99.90;;;;;;5047967;28;21031;-71
2023/03/03 09:32:27;;;;;;;50.70;29.08;;;6.60;99.90;;;;;;5047932;28;20417;-71
2023/03/03 09:34:53;;;;;;;59.10;32.57;;;6.60;99.90;;;;;;5043775;28;20227;-71
2023/03/03 09:37:28;;;;;;;60.67;31.97;;;6.60;99.90;;;;;;5045440;28;20511;-71
2023/03/03 09:39:56;;;;;;;63.00;32.22;;;6.60;99.90;;;;;;5047221;28;20685;-71
2023/03/03 09:42:42;;;;;;;60.27;33.90;;;6.70;99.90;;;;;;5048011;28;20660;-71
2023/03/03 09:45:48;;;;;;;60.60;32.87;;;6.80;99.90;;;;;;5050910;28;20426;-71
2023/03/03 09:48:38;;;;;;;63.60;31.70;;;6.90;99.90;;;;;;5047523;28;20496;-71
2023/03/03 09:51:18;;;;;;;55.50;31.60;;;7.10;99.90;;;;;;5050597;28;20410;-71
2023/03/03 09:53:46;;;;;;;64.10;33.57;;;7.10;99.90;;;;;;5050919;28;20474;-71
2023/03/03 09:56:20;;;;;;;64.83;32.67;;;7.40;99.90;;;;;;5048995;28;20492;-71
2023/03/03 09:59:01;;;;;;;53.60;32.17;;;7.70;99.90;;;;;;5050544;28;20503;-71
2023/03/03 10:01:39;;;;;;;55.70;30.60;;;7.80;99.90;;;;;;5050457;28;20184;-71
2023/03/03 10:04:23;;;;;;;54.53;29.63;;;7.60;99.20;;;;;;5048848;28;20495;-72
2023/03/03 10:06:52;;;;;;;53.60;29.87;;;7.70;99.90;;;;;;5048583;28;20288;-71
2023/03/03 10:09:29;;;;;;;53.13;30.77;;;7.70;99.90;;;;;;5050418;28;20513;-71
2023/03/03 10:12:18;;;;;;;54.57;29.73;;;7.80;99.70;;;;;;5048849;28;20498;-71
2023/03/03 10:14:55;;;;;;;53.27;31.47;;;7.90;98.60;;;;;;5050300;28;21057;-71
2023/03/03 10:17:42;;;;;;;53.53;30.50;;;7.90;98.20;;;;;;5048686;28;20523;-71
2023/03/03 10:20:23;;;;;;;57.73;30.77;;;8.30;99.50;;;;;;5050139;28;20414;-71
2023/03/03 10:22:53;;;;;;;61.60;30.60;;;8.90;97.80;;;;;;5050010;28;20418;-71
2023/03/03 10:25:35;;;;;;;55.83;30.33;;;8.90;96.90;;;;;;5050168;28;20429;-71
2023/03/03 10:28:29;;;;;;;53.60;31.20;;;9.00;96.20;;;;;;5049950;28;20464;-72
2023/03/03 10:31:18;;;;;;;56.20;33.20;;;9.20;96.00;;;;;;5050621;28;20414;-72
2023/03/03 10:33:56;;;;;;;48.20;29.57;;;9.40;95.10;;;;;;5050003;28;20474;-71
2023/03/03 10:36:54;;;;;;;59.23;32.57;;;10.00;92.60;;;;;;5049935;28;20505;-71
2023/03/03 10:39:34;;;;;;;60.87;30.50;;;10.10;91.90;;;;;;5049754;28;20442;-71
2023/03/03 10:42:06;;;;;;;58.03;31.77;;;9.90;92.90;;;;;;5049831;28;20788;-71
2023/03/03 10:44:46;;;;;;;57.40;30.73;;;10.10;93.10;;;;;;5049835;28;20516;-71
2023/03/03 10:47:32;;;;;;;63.47;33.63;;;10.50;91.20;;;;;;5049628;28;20445;-71
2023/03/03 10:49:58;;;;;;;57.93;29.80;;;11.50;92.90;;;;;;5049735;28;20914;-72
2023/03/03 10:52:46;;;;;;;54.47;31.47;;;12.50;88.10;;;;;;5049157;28;20920;-72
2023/03/03 10:55:27;;;;;;;58.10;32.10;;;12.70;86.60;;;;;;5049523;28;20852;-72
2023/03/03 10:58:27;;;;;;;60.97;33.20;;;12.50;82.10;;;;;;5049853;28;20429;-72
2023/03/03 11:01:11;;;;;;;55.90;33.27;;;11.90;82.10;;;;;;5037671;28;20493;-72
2023/03/03 11:03:57;;;;;;;56.37;32.60;;;11.70;84.20;;;;;;5049915;28;20563;-72
2023/03/03 11:06:33;;;;;;;55.40;31.87;;;12.30;84.70;;;;;;5049927;28;20923;-72
2023/03/03 11:09:24;;;;;;;58.23;31.97;;;13.00;80.90;;;;;;5049762;28;20434;-71
2023/03/03 11:11:55;;;;;;;48.83;31.60;;;13.50;78.60;;;;;;5049872;28;20423;-72
2023/03/03 11:14:37;;;;;;;54.07;31.30;;;14.00;76.70;;;;;;5049765;28;21034;-72
2023/03/03 11:17:22;;;;;;;49.70;30.73;;;14.30;75.20;;;;;;5049511;28;20816;-72
2023/03/03 11:20:20;;;;;;;50.77;31.30;;;14.70;73.60;;;;;;5048125;28;20429;-72
2023/03/03 11:22:59;;;;;;;49.90;30.90;;;14.70;71.60;;;;;;5049512;28;21204;-72
2023/03/03 11:25:49;;;;;;;49.30;31.43;;;14.60;71.70;;;;;;5049486;28;20444;-72
2023/03/03 11:28:48;;;;;;;57.83;33.07;;;14.70;70.00;;;;;;5048017;28;20439;-72
2023/03/03 11:31:30;;;;;;;49.97;31.13;;;14.20;67.90;;;;;;5049520;28;20972;-72
2023/03/03 11:34:05;;;;;;;55.60;31.40;;;14.60;69.50;;;;;;5049213;28;20475;-72
2023/03/03 11:36:45;;;;;;;51.37;32.27;;;15.00;66.50;;;;;;5049039;28;20428;-71
2023/03/03 11:39:18;;;;;;;52.03;31.57;;;14.90;66.80;;;;;;5049293;28;20441;-72
2023/03/03 11:42:07;;;;;;;75.77;33.70;;;15.10;67.10;;;;;;5049458;28;20409;-72
2023/03/03 11:44:58;;;;;;;47.90;30.90;;;14.90;66.40;;;;;;5041887;28;20457;-72
2023/03/03 11:47:37;;;;;;;52.63;33.87;;;14.40;67.50;;;;;;5049208;28;21056;-71
2023/03/03 11:50:27;;;;;;;52.83;31.27;;;14.00;68.00;;;;;;5047531;28;20533;-70
2023/03/03 11:53:31;;;;;;;54.37;33.00;;;13.90;69.90;;;;;;5048988;28;20426;-72
2023/03/03 11:56:19;;;;;;;64.50;31.07;;;14.10;66.60;;;;;;5044822;28;20898;-72
2023/03/03 11:59:04;;;;;;;50.00;32.57;;;14.40;67.40;;;;;;5048878;28;20991;-72
2023/03/03 12:01:38;;;;;;;58.47;32.20;;;14.00;66.50;;;;;;5048993;28;20419;-72
2023/03/03 12:04:10;;;;;;;55.13;33.67;;;13.70;68.80;;;;;;5048713;28;20929;-71
2023/03/03 12:07:02;;;;;;;60.23;35.13;;;13.50;67.90;;;;;;5048831;28;20480;-71
2023/03/03 12:10:02;;;;;;;54.70;33.23;;;13.20;68.10;;;;;;5048608;28;20774;-71
2023/03/03 12:12:35;;;;;;;52.73;33.80;;;12.80;71.10;;;;;;5048809;28;20415;-71
2023/03/03 12:15:26;;;;;;;53.10;32.57;;;12.40;71.70;;;;;;5048638;28;20460;-71
2023/03/03 12:18:00;;;;;;;51.33;31.87;;;12.30;73.10;;;;;;5048595;28;20467;-71
2023/03/03 12:20:44;;;;;;;48.37;31.70;;;12.20;73.60;;;;;;5048969;28;20830;-72
2023/03/03 12:23:17;;;;;;;56.63;33.23;;;12.00;74.30;;;;;;5047916;28;20434;-72
2023/03/03 12:26:03;;;;;;;48.50;31.60;;;12.20;74.80;;;;;;5049010;28;20427;-71
2023/03/03 12:29:31;;;;;;;50.80;31.63;;;12.10;73.90;;;;;;5049194;28;20447;-71
2023/03/03 12:32:20;;;;;;;55.60;32.00;;;12.20;76.10;;;;;;5023880;28;20522;-71
2023/03/03 12:35:17;;;;;;;49.90;30.50;;;12.40;74.20;;;;;;5045001;28;20467;-71
2023/03/03 12:38:28;;;;;;;56.27;30.17;;;12.90;73.00;;;;;;5045569;28;20472;-71
2023/03/03 12:41:04;;;;;;;48.17;30.50;;;12.90;70.70;;;;;;5047132;28;20801;-71
2023/03/03 12:43:48;;;;;;;56.30;33.43;;;12.70;71.70;;;;;;5048197;28;20421;-71
2023/03/03 12:46:22;;;;;;;54.23;32.60;;;12.60;71.80;;;;;;5047050;28;20551;-71
2023/03/03 12:48:47;;;;;;;57.70;31.90;;;12.50;72.50;;;;;;5048021;28;20439;-71
2023/03/03 12:51:40;;;;;;;54.63;34.27;;;12.30;72.30;;;;;;5047091;28;20426;-71
2023/03/03 12:54:27;;;;;;;50.60;29.97;;;12.20;73.70;;;;;;5046546;28;20185;-72
2023/03/03 12:57:30;;;;;;;44.40;29.10;;;12.10;72.80;;;;;;5046412;28;20876;-72
2023/03/03 13:00:10;;;;;;;52.87;32.33;;;12.00;73.80;;;;;;5047868;28;20408;-73
2023/03/03 13:03:00;;;;;;;73.60;30.90;;;12.20;74.70;;;;;;5048007;28;20418;-72